Terminal Aerodrome Forecast
Issued by NWS Sioux Falls, SD

Home | Current Version | Previous Version | Text Only | Print | Product List | Glossary Off
Versions: 1 2 3 4 5 6 7 8 9 10 11 12 13

555
FTUS43 KFSD 190520
TAFHON
TAF
KHON 190520Z 1906/2006 33009KT P6SM BKN050
     FM190700 VRB03KT P6SM SCT200
     FM190900 00000KT 2SM BR SCT010 SCT200
     FM191400 VRB03KT P6SM FEW150
     FM191800 14004KT P6SM FEW250=

USA.gov is the U.S. government's official web portal to all federal, state and local government web resources and services.